Time;durP1;ratioP1;P1;durP2;ratioP2;P2;SDS_P1;SDS_P2;PMS_P1;PMS_P2;Temp;Humidity;BMP_temperature;BMP_pressure;BME280_temperature;BME280_humidity;BME280_pressure;Samples;Min_cycle;Max_cycle;Signal;HPM_P1;HPM_P2
2022/06/30 00:00:37;;;;;;;6.82;1.45;;;;;;;19.15;59.50;101232.78;2096826;28;20077;-71
2022/06/30 00:01:39;;;;;;;1.60;0.93;;;;;;;19.14;59.15;101228.31;2095040;28;20041;-72
2022/06/30 00:02:41;;;;;;;2.78;0.70;;;;;;;19.11;59.33;101229.34;2096228;28;21131;-71
2022/06/30 00:03:47;;;;;;;1.27;1.00;;;;;;;19.13;59.56;101226.56;2096194;28;20171;-71
2022/06/30 00:04:49;;;;;;;1.55;0.93;;;;;;;19.12;59.26;101222.09;2095769;28;31199;-71
2022/06/30 00:05:51;;;;;;;1.88;1.15;;;;;;;19.08;59.87;101227.69;2098733;28;20087;-71
2022/06/30 00:06:53;;;;;;;2.30;0.90;;;;;;;19.08;59.15;101224.97;2095890;28;23470;-71
2022/06/30 00:07:55;;;;;;;3.20;0.98;;;;;;;19.08;59.22;101224.97;2096633;28;20118;-70
2022/06/30 00:08:57;;;;;;;3.83;0.98;;;;;;;19.10;59.41;101229.47;2095441;28;20706;-71
2022/06/30 00:10:02;;;;;;;1.67;1.00;;;;;;;19.10;59.10;101232.19;2095794;28;27994;-71
2022/06/30 00:11:06;;;;;;;3.67;0.98;;;;;;;19.10;58.86;101230.34;2096398;28;20106;-71
2022/06/30 00:12:09;;;;;;;1.48;0.80;;;;;;;19.12;59.19;101235.69;2095290;28;40717;-71
2022/06/30 00:13:11;;;;;;;1.08;0.70;;;;;;;19.10;58.97;101240.31;2096067;28;26767;-71
2022/06/30 00:14:13;;;;;;;2.20;1.00;;;;;;;19.11;59.18;101244.78;2095547;28;20118;-71
2022/06/30 00:15:14;;;;;;;4.10;1.10;;;;;;;19.10;59.03;101233.03;2094933;28;39396;-71
2022/06/30 00:16:17;;;;;;;2.53;0.80;;;;;;;19.14;58.73;101237.34;2095436;28;20033;-71
2022/06/30 00:17:19;;;;;;;1.00;0.70;;;;;;;19.12;58.82;101235.69;2095412;28;28478;-71
2022/06/30 00:18:23;;;;;;;2.67;0.73;;;;;;;19.10;58.85;101232.19;2096041;28;20960;-71
2022/06/30 00:19:34;;;;;;;1.75;0.90;;;;;;;19.11;58.71;101239.34;2096564;28;20842;-71
2022/06/30 00:20:35;;;;;;;1.98;0.80;;;;;;;19.09;58.78;101231.28;2095302;28;34526;-71
2022/06/30 00:21:37;;;;;;;1.60;0.80;;;;;;;19.08;58.41;101238.56;2095495;28;26541;-71
2022/06/30 00:22:39;;;;;;;3.70;0.93;;;;;;;19.08;58.33;101229.53;2094335;28;30813;-71
2022/06/30 00:23:41;;;;;;;2.80;0.82;;;;;;;19.10;58.26;101233.03;2096146;28;20916;-71
2022/06/30 00:24:43;;;;;;;1.48;0.80;;;;;;;19.10;58.77;101237.59;2094449;28;34485;-71
2022/06/30 00:25:45;;;;;;;2.15;1.00;;;;;;;19.11;58.53;101229.34;2095468;28;20073;-71
2022/06/30 00:26:52;;;;;;;2.63;0.90;;;;;;;19.12;58.44;101232.97;2095940;28;20091;-71
2022/06/30 00:27:53;;;;;;;2.28;0.90;;;;;;;19.12;58.97;101235.69;2089003;28;20922;-71
2022/06/30 00:28:55;;;;;;;3.88;0.70;;;;;;;19.11;58.46;101236.63;2095742;28;20084;-71
2022/06/30 00:29:57;;;;;;;2.92;0.80;;;;;;;19.09;58.54;101228.56;2094955;28;30374;-71
2022/06/30 00:30:59;;;;;;;1.30;0.70;;;;;;;19.08;58.57;101230.41;2094793;28;20033;-71
2022/06/30 00:32:01;;;;;;;1.20;0.73;;;;;;;19.07;58.69;101228.63;2095303;28;20937;-71
2022/06/30 00:33:05;;;;;;;1.80;0.80;;;;;;;19.06;58.81;101229.63;2096313;28;20436;-71
2022/06/30 00:34:07;;;;;;;2.42;0.93;;;;;;;19.06;58.66;101236.91;2096578;28;20036;-71
2022/06/30 00:35:09;;;;;;;1.45;0.70;;;;;;;19.03;58.42;101220.78;2095982;28;27658;-71
2022/06/30 00:36:11;;;;;;;2.58;0.90;;;;;;;19.01;58.72;101228.97;2098929;28;20045;-71
2022/06/30 00:37:13;;;;;;;1.77;0.80;;;;;;;19.03;58.24;101229.78;2096125;28;25500;-71
2022/06/30 00:38:15;;;;;;;1.25;0.93;;;;;;;19.02;58.34;101228.03;2095732;28;32414;-71
2022/06/30 00:39:16;;;;;;;1.83;0.82;;;;;;;19.00;58.62;101227.22;2096213;28;20430;-71
2022/06/30 00:40:18;;;;;;;4.72;0.90;;;;;;;18.99;58.93;101225.47;2095663;28;23106;-71
2022/06/30 00:41:25;;;;;;;2.95;0.80;;;;;;;18.98;58.65;101231.00;2095880;28;20122;-71
2022/06/30 00:42:29;;;;;;;2.03;0.73;;;;;;;18.97;58.50;101226.50;2096233;28;21039;-71
2022/06/30 00:43:41;;;;;;;2.03;0.73;;;;;;;18.98;58.50;101222.84;2087210;28;22149;-71
2022/06/30 00:44:45;;;;;;;2.38;0.82;;;;;;;18.94;58.77;101222.13;2090952;28;21707;-71
2022/06/30 00:45:48;;;;;;;1.65;0.70;;;;;;;18.93;58.38;101223.06;2097735;28;27332;-71
2022/06/30 00:46:51;;;;;;;1.92;0.90;;;;;;;18.93;58.76;101214.94;2098125;28;20041;-71
2022/06/30 00:47:52;;;;;;;3.65;0.80;;;;;;;18.91;58.64;101218.72;2097394;28;23479;-71
2022/06/30 00:48:54;;;;;;;2.35;0.88;;;;;;;18.87;58.77;101218.00;2105306;28;26247;-71
2022/06/30 00:49:58;;;;;;;1.58;0.90;;;;;;;18.86;58.85;101221.66;2105984;28;21126;-71
2022/06/30 00:51:00;;;;;;;1.10;0.60;;;;;;;18.85;59.02;101219.91;2105948;28;21575;-71
2022/06/30 00:52:03;;;;;;;2.40;0.70;;;;;;;18.83;58.68;101213.69;2105384;28;27845;-71
2022/06/30 00:53:08;;;;;;;1.35;0.70;;;;;;;18.84;58.58;101210.91;2102486;28;24303;-71
2022/06/30 00:54:11;;;;;;;2.05;0.77;;;;;;;18.83;58.83;101213.69;2095975;28;31950;-71
2022/06/30 00:55:15;;;;;;;3.58;0.95;;;;;;;18.84;58.97;101208.19;2096684;28;32653;-71
2022/06/30 00:56:20;;;;;;;1.95;0.60;;;;;;;18.87;58.52;101209.84;2096398;28;21565;-71
2022/06/30 00:57:24;;;;;;;1.90;0.50;;;;;;;18.81;58.80;101213.78;2089360;28;26403;-71
2022/06/30 00:58:31;;;;;;;2.17;0.60;;;;;;;18.80;59.14;101211.97;2096378;28;31180;-71
2022/06/30 00:59:33;;;;;;;2.80;0.70;;;;;;;18.82;58.79;101209.22;2097427;28;29273;-71
2022/06/30 01:00:45;;;;;;;3.00;0.98;;;;;;;18.84;58.64;101207.28;2097436;28;26606;-71
2022/06/30 01:01:49;;;;;;;2.45;0.75;;;;;;;18.79;58.69;101201.19;2097001;28;24443;-71
2022/06/30 01:02:55;;;;;;;2.55;0.93;;;;;;;18.81;58.67;101200.22;2096734;28;23677;-71
2022/06/30 01:03:58;;;;;;;5.05;0.80;;;;;;;18.80;58.82;101192.97;2096894;28;26450;-70
2022/06/30 01:05:00;;;;;;;1.85;0.57;;;;;;;18.76;58.95;101196.81;2088446;28;22541;-71
2022/06/30 01:06:05;;;;;;;1.77;0.82;;;;;;;18.78;59.03;101194.03;2089019;28;20119;-71
2022/06/30 01:07:09;;;;;;;3.60;0.77;;;;;;;18.73;58.98;101190.69;2099338;28;20134;-71
2022/06/30 01:08:11;;;;;;;2.05;0.80;;;;;;;18.68;59.21;101197.25;2097606;28;24738;-71
2022/06/30 01:13:17;;;;;;;3.17;0.80;;;;;;;18.68;59.18;101189.09;2096481;28;34087;-72
2022/06/30 01:14:21;;;;;;;1.90;0.85;;;;;;;18.66;59.40;101185.59;2096610;28;23825;-71
2022/06/30 01:15:23;;;;;;;1.77;0.85;;;;;;;18.65;59.54;101183.84;2096254;28;32288;-71
2022/06/30 01:16:25;;;;;;;2.53;0.60;;;;;;;18.64;59.33;101183.91;2096465;28;20888;-70
2022/06/30 01:17:30;;;;;;;1.35;0.90;;;;;;;18.62;59.59;101183.13;2096408;28;30173;-71
2022/06/30 01:18:35;;;;;;;1.30;0.65;;;;;;;18.62;59.44;101181.28;2096466;28;28202;-71
2022/06/30 01:19:53;;;;;;;2.28;0.93;;;;;;;18.63;59.33;101179.47;2096555;28;32349;-70
2022/06/30 01:20:55;;;;;;;3.72;0.77;;;;;;;18.62;59.47;101172.28;2096350;28;36330;-71
2022/06/30 01:22:02;;;;;;;2.83;0.82;;;;;;;18.56;59.86;101173.47;2089680;28;22842;-71
2022/06/30 01:23:05;;;;;;;1.15;0.70;;;;;;;18.56;59.78;101178.91;2096178;28;21447;-71
2022/06/30 01:24:07;;;;;;;2.72;0.90;;;;;;;18.52;59.88;101180.03;2094806;28;36704;-70
2022/06/30 01:25:10;;;;;;;2.78;0.80;;;;;;;18.49;59.91;101185.59;2096338;28;23527;-71
2022/06/30 01:26:12;;;;;;;2.45;0.70;;;;;;;18.46;60.08;101183.03;2097146;28;25966;-71
2022/06/30 01:27:14;;;;;;;1.60;0.60;;;;;;;18.44;60.19;101183.13;2096649;28;26892;-71
2022/06/30 01:28:16;;;;;;;1.52;0.60;;;;;;;18.41;60.26;101185.13;2097329;28;20045;-71
2022/06/30 01:29:18;;;;;;;1.20;0.75;;;;;;;18.41;60.17;101190.53;2097194;28;20910;-71
2022/06/30 01:30:21;;;;;;;1.80;0.85;;;;;;;18.37;60.33;101178.09;2095454;28;29953;-71
2022/06/30 01:31:23;;;;;;;1.23;0.60;;;;;;;18.33;60.55;101190.06;2097116;28;23359;-71
2022/06/30 01:32:28;;;;;;;2.17;0.85;;;;;;;18.33;60.33;101190.06;2097911;28;20049;-71
2022/06/30 01:33:30;;;;;;;5.45;0.80;;;;;;;18.28;60.68;101193.88;2096891;28;26051;-71
2022/06/30 01:34:31;;;;;;;1.40;0.60;;;;;;;18.27;60.76;101185.84;2095803;28;20106;-71
2022/06/30 01:35:33;;;;;;;3.50;0.80;;;;;;;18.29;60.91;101189.34;2087160;28;27819;-71
2022/06/30 01:36:36;;;;;;;2.63;0.77;;;;;;;18.26;60.47;101193.06;2087709;28;30288;-71
2022/06/30 01:37:59;;;;;;;2.40;0.57;;;;;;;18.25;60.72;101188.63;2100039;28;20177;-70
2022/06/30 01:39:02;;;;;;;1.10;0.75;;;;;;;18.21;60.68;101188.84;2096720;28;30587;-71
2022/06/30 01:40:04;;;;;;;4.95;0.70;;;;;;;18.19;60.99;101186.22;2096398;28;20942;-71
2022/06/30 01:41:09;;;;;;;1.60;0.80;;;;;;;18.18;61.20;101186.28;2096355;28;20889;-71
2022/06/30 01:42:12;;;;;;;2.92;0.90;;;;;;;18.14;61.07;101188.28;2096327;28;28292;-71
2022/06/30 01:43:14;;;;;;;2.40;0.73;;;;;;;18.14;60.69;101188.28;2096860;28;26646;-71
2022/06/30 01:44:18;;;;;;;2.63;0.70;;;;;;;18.11;61.52;101191.16;2096540;28;20798;-71
2022/06/30 01:45:21;;;;;;;2.25;0.70;;;;;;;18.06;61.64;101193.22;2096698;28;27928;-71
2022/06/30 01:46:23;;;;;;;1.20;0.82;;;;;;;18.04;61.56;101192.44;2096717;28;23110;-71
2022/06/30 01:47:25;;;;;;;2.03;0.88;;;;;;;18.06;61.79;101195.94;2097684;28;20044;-71
2022/06/30 01:48:29;;;;;;;2.05;0.73;;;;;;;17.99;61.96;101189.94;2096088;28;20134;-71
2022/06/30 01:49:31;;;;;;;3.50;0.73;;;;;;;17.96;62.29;101194.63;2096849;28;33191;-71
2022/06/30 01:50:34;;;;;;;1.50;0.63;;;;;;;17.91;62.17;101186.75;2096865;28;23823;-71
2022/06/30 01:51:36;;;;;;;2.97;0.75;;;;;;;17.88;62.04;101185.06;2097179;28;26563;-71
2022/06/30 01:52:40;;;;;;;1.88;0.80;;;;;;;17.84;62.76;101188.84;2095971;28;25649;-71
2022/06/30 01:53:42;;;;;;;2.80;0.90;;;;;;;17.81;62.63;101189.00;2097277;28;20074;-71
2022/06/30 01:54:44;;;;;;;1.45;0.77;;;;;;;17.79;62.85;101188.19;2097302;28;25582;-71
2022/06/30 01:55:45;;;;;;;2.55;1.02;;;;;;;17.77;63.10;101191.94;2097165;28;34220;-71
2022/06/30 01:56:47;;;;;;;1.52;0.70;;;;;;;17.74;63.19;101185.69;2096921;28;22081;-71
2022/06/30 01:57:50;;;;;;;3.10;0.90;;;;;;;17.74;62.91;101182.97;2096917;28;20118;-71
2022/06/30 01:58:54;;;;;;;2.75;0.73;;;;;;;17.71;62.91;101182.25;2096620;28;20037;-71
2022/06/30 01:59:58;;;;;;;1.77;0.90;;;;;;;17.67;62.75;101180.66;2097484;28;20044;-71
2022/06/30 02:01:00;;;;;;;5.03;0.90;;;;;;;17.66;63.04;101182.50;2095951;28;28788;-71
2022/06/30 02:02:02;;;;;;;2.95;0.75;;;;;;;17.67;63.33;101184.25;2097305;28;20538;-71
2022/06/30 02:03:03;;;;;;;1.30;0.90;;;;;;;17.66;62.95;101168.09;2096418;28;28556;-70
2022/06/30 02:05:28;;;;;;;1.70;0.98;;;;;;;17.64;63.13;101175.38;2096548;28;24963;-71
2022/06/30 02:06:30;;;;;;;1.70;1.00;;;;;;;17.66;63.53;101173.50;2096429;28;28225;-71
2022/06/30 02:07:36;;;;;;;2.80;0.85;;;;;;;17.68;63.12;101174.31;2097097;28;20274;-71
2022/06/30 02:08:38;;;;;;;2.35;0.90;;;;;;;17.69;63.32;101166.13;2098401;28;20118;-71
2022/06/30 02:09:40;;;;;;;3.65;1.05;;;;;;;17.71;62.84;101166.00;2096398;28;23717;-71
2022/06/30 02:10:43;;;;;;;3.55;0.80;;;;;;;17.72;62.84;101165.94;2103611;28;25386;-71
2022/06/30 02:11:45;;;;;;;4.20;1.02;;;;;;;17.70;63.32;101158.84;2103938;28;21256;-72
2022/06/30 02:12:47;;;;;;;4.10;0.90;;;;;;;17.67;62.73;101162.56;2096080;28;27708;-71
2022/06/30 02:13:49;;;;;;;2.17;1.00;;;;;;;17.70;62.85;101162.44;2087460;28;20029;-71
2022/06/30 02:14:58;;;;;;;2.25;0.88;;;;;;;17.70;62.62;101156.16;2096543;28;33842;-71
2022/06/30 02:16:00;;;;;;;1.60;0.98;;;;;;;17.68;62.28;101158.94;2096680;28;26777;-71
2022/06/30 02:17:06;;;;;;;3.00;1.13;;;;;;;17.67;62.87;101156.28;2097071;28;30386;-71
2022/06/30 02:18:08;;;;;;;4.05;1.23;;;;;;;17.65;62.85;101160.91;2096324;28;23091;-71
2022/06/30 02:19:10;;;;;;;1.70;0.90;;;;;;;17.62;63.22;101150.22;2087448;28;34249;-71
2022/06/30 02:20:18;;;;;;;1.20;0.73;;;;;;;17.58;63.05;101154.03;2087335;28;20118;-71
2022/06/30 02:21:22;;;;;;;1.73;1.00;;;;;;;17.65;63.05;101158.19;2088409;28;32373;-71
2022/06/30 02:22:24;;;;;;;3.35;1.05;;;;;;;17.63;63.07;101160.09;2091021;28;23321;-71
2022/06/30 02:23:26;;;;;;;3.97;0.90;;;;;;;17.61;63.13;101159.31;2095243;28;30916;-71
2022/06/30 02:24:28;;;;;;;2.85;1.10;;;;;;;17.64;62.89;101162.75;2097057;28;20866;-71
2022/06/30 02:25:32;;;;;;;2.55;0.70;;;;;;;17.61;62.80;101162.03;2095546;28;24497;-71
2022/06/30 02:26:34;;;;;;;3.85;0.88;;;;;;;17.61;63.10;101162.03;2095640;28;21147;-71
2022/06/30 02:27:36;;;;;;;1.83;1.00;;;;;;;17.61;63.01;101156.59;2096596;28;21615;-71
2022/06/30 02:28:40;;;;;;;2.28;0.70;;;;;;;17.60;63.20;101162.97;2095615;28;31748;-71
2022/06/30 02:29:42;;;;;;;2.75;0.90;;;;;;;17.58;62.68;101163.03;2096471;28;27183;-71
2022/06/30 02:30:43;;;;;;;2.25;0.68;;;;;;;17.54;63.20;101162.31;2095544;28;34032;-71
2022/06/30 02:31:45;;;;;;;4.85;0.93;;;;;;;17.59;62.61;101162.09;2095840;28;33240;-71
2022/06/30 02:32:47;;;;;;;2.70;1.08;;;;;;;17.56;63.19;101165.81;2097160;28;20041;-71
2022/06/30 02:33:49;;;;;;;3.10;0.90;;;;;;;17.54;63.08;101162.31;2095338;28;24294;-71
2022/06/30 02:34:52;;;;;;;3.08;1.05;;;;;;;17.50;63.31;101163.41;2096581;28;20037;-71
2022/06/30 02:35:54;;;;;;;2.92;0.95;;;;;;;17.50;63.34;101158.00;2096320;28;25124;-70
2022/06/30 02:36:56;;;;;;;3.60;1.08;;;;;;;17.48;63.22;101167.13;2096551;28;28737;-71
2022/06/30 02:37:58;;;;;;;2.65;1.00;;;;;;;17.47;63.50;101159.97;2096036;28;29067;-71
2022/06/30 02:39:00;;;;;;;2.05;0.90;;;;;;;17.41;63.67;101162.97;2098740;28;20882;-71
2022/06/30 02:40:03;;;;;;;2.40;1.00;;;;;;;17.45;63.59;101157.34;2097152;28;22469;-71
2022/06/30 02:41:09;;;;;;;2.53;1.13;;;;;;;17.40;63.14;101161.22;2096779;28;20044;-71
2022/06/30 02:42:11;;;;;;;3.70;0.80;;;;;;;17.36;63.76;101160.50;2096134;28;30384;-71
2022/06/30 02:43:14;;;;;;;2.88;0.98;;;;;;;17.40;63.40;101162.09;2096378;28;23752;-71
2022/06/30 02:44:16;;;;;;;2.30;0.98;;;;;;;17.33;63.73;101156.09;2095505;28;26577;-71
2022/06/30 02:45:18;;;;;;;1.20;0.68;;;;;;;17.30;64.20;101149.94;2096575;28;20037;-71
2022/06/30 02:46:20;;;;;;;2.15;1.10;;;;;;;17.28;64.15;101157.25;2095514;28;26246;-71
2022/06/30 02:47:40;;;;;;;2.33;1.00;;;;;;;17.27;63.79;101160.94;2096681;28;25462;-71
2022/06/30 02:48:44;;;;;;;3.17;1.02;;;;;;;17.23;63.93;101162.91;2097032;28;23211;-71
2022/06/30 02:49:46;;;;;;;3.30;1.10;;;;;;;17.20;64.28;101156.75;2097108;28;20044;-71
2022/06/30 02:50:48;;;;;;;2.25;0.90;;;;;;;17.15;64.27;101159.66;2096827;28;23852;-71
2022/06/30 02:51:50;;;;;;;3.00;0.93;;;;;;;17.14;64.30;101164.22;2096739;28;20075;-71
2022/06/30 02:52:54;;;;;;;2.47;0.80;;;;;;;17.13;64.40;101157.03;2095304;28;35957;-71
2022/06/30 02:53:56;;;;;;;2.65;0.88;;;;;;;17.11;64.39;101158.94;2096113;28;29117;-71
2022/06/30 02:55:00;;;;;;;1.13;0.70;;;;;;;17.07;64.94;101157.34;2095455;28;34614;-72
2022/06/30 02:56:02;;;;;;;1.60;0.90;;;;;;;17.08;64.41;101159.06;2095325;28;29216;-71
2022/06/30 02:57:04;;;;;;;1.77;0.77;;;;;;;17.07;64.93;101156.47;2095414;28;23828;-71
2022/06/30 02:58:06;;;;;;;2.05;1.00;;;;;;;17.02;64.40;101159.38;2097071;28;21152;-70
2022/06/30 02:59:11;;;;;;;1.67;1.02;;;;;;;17.00;64.66;101158.56;2095630;28;33089;-71
2022/06/30 03:00:13;;;;;;;1.35;0.68;;;;;;;16.94;64.73;101162.44;2096733;28;21316;-71
2022/06/30 03:01:15;;;;;;;3.65;1.10;;;;;;;16.91;65.53;101162.56;2096432;28;22614;-71
2022/06/30 03:02:19;;;;;;;2.25;0.82;;;;;;;16.91;65.23;101167.97;2097229;28;22951;-71
2022/06/30 03:03:21;;;;;;;2.55;0.80;;;;;;;16.85;64.96;101167.38;2095885;28;20048;-71
2022/06/30 03:04:23;;;;;;;1.80;0.82;;;;;;;16.85;65.82;101162.88;2094541;28;32598;-71
2022/06/30 03:05:25;;;;;;;2.00;0.80;;;;;;;16.83;65.68;101171.94;2095737;28;27814;-71
2022/06/30 03:06:32;;;;;;;2.80;1.00;;;;;;;16.82;65.97;101167.50;2095407;28;30825;-71
2022/06/30 03:07:34;;;;;;;2.00;0.90;;;;;;;16.82;66.05;101171.06;2094183;28;36510;-71
2022/06/30 03:08:36;;;;;;;4.07;1.00;;;;;;;16.86;66.10;101164.59;2095659;28;41691;-71
2022/06/30 03:09:37;;;;;;;4.53;0.93;;;;;;;16.83;66.08;101163.84;2098416;28;25363;-71
2022/06/30 03:10:41;;;;;;;3.17;0.77;;;;;;;16.82;65.78;101162.09;2095891;28;26506;-71
2022/06/30 03:11:48;;;;;;;1.75;1.17;;;;;;;16.80;65.84;101163.03;2096226;28;20037;-71
2022/06/30 03:12:52;;;;;;;2.95;1.00;;;;;;;16.77;65.64;101165.84;2096163;28;21649;-71
2022/06/30 03:13:54;;;;;;;4.45;0.90;;;;;;;16.75;66.04;101159.66;2095282;28;32053;-71
2022/06/30 03:14:56;;;;;;;2.53;1.10;;;;;;;16.75;66.77;101162.34;2095794;28;22571;-71
2022/06/30 03:15:58;;;;;;;2.28;1.02;;;;;;;16.78;66.97;101156.81;2095703;28;34399;-71
2022/06/30 03:17:02;;;;;;;3.60;1.30;;;;;;;16.77;66.32;101160.44;2095288;28;32055;-70
2022/06/30 03:18:04;;;;;;;1.70;0.95;;;;;;;16.73;66.20;101158.84;2100582;28;20045;-72
2022/06/30 03:19:07;;;;;;;1.77;1.15;;;;;;;16.74;66.43;101160.63;2105318;28;20114;-71
2022/06/30 03:20:10;;;;;;;2.97;1.02;;;;;;;16.73;66.67;101158.84;2104978;28;20079;-71
2022/06/30 03:21:12;;;;;;;3.05;0.95;;;;;;;16.75;66.88;101159.66;2097678;28;24018;-71
2022/06/30 03:22:14;;;;;;;2.58;1.00;;;;;;;16.72;66.73;101165.19;2096149;28;24337;-71
2022/06/30 03:23:16;;;;;;;1.20;1.00;;;;;;;16.73;66.67;101163.38;2096821;28;24281;-71
2022/06/30 03:24:22;;;;;;;1.40;0.98;;;;;;;16.74;66.41;101160.63;2097222;28;21344;-71
2022/06/30 03:25:24;;;;;;;1.67;1.10;;;;;;;16.76;66.20;101161.41;2096297;28;22171;-71
2022/06/30 03:26:26;;;;;;;3.40;0.90;;;;;;;16.77;66.14;101160.44;2095914;28;24584;-71
2022/06/30 03:27:28;;;;;;;1.58;1.05;;;;;;;16.79;66.10;101166.66;2096423;28;30473;-71
2022/06/30 03:28:31;;;;;;;1.33;0.95;;;;;;;16.79;66.08;101160.38;2096173;28;31709;-71
2022/06/30 03:29:35;;;;;;;3.15;1.02;;;;;;;16.81;66.71;101163.91;2095645;28;32038;-71
2022/06/30 03:30:37;;;;;;;1.85;1.00;;;;;;;16.84;65.80;101165.63;2080263;28;20038;-71
2022/06/30 03:31:39;;;;;;;2.83;1.10;;;;;;;16.88;66.28;101172.66;2088035;28;20033;-71
2022/06/30 03:32:40;;;;;;;4.00;1.10;;;;;;;16.93;65.81;101160.66;2096357;28;25523;-71
2022/06/30 03:33:42;;;;;;;1.42;1.00;;;;;;;16.94;65.69;101158.84;2097084;28;20147;-71
2022/06/30 03:34:44;;;;;;;2.65;1.20;;;;;;;16.97;65.77;101151.44;2095047;28;23096;-71
2022/06/30 03:35:48;;;;;;;4.35;0.98;;;;;;;16.98;65.82;101155.94;2087484;28;21013;-71
2022/06/30 03:36:52;;;;;;;2.15;1.17;;;;;;;16.99;65.78;101159.50;2095798;28;20154;-71
2022/06/30 03:37:55;;;;;;;2.60;1.10;;;;;;;16.99;65.51;101154.09;2096245;28;20033;-71
2022/06/30 03:40:24;;;;;;;2.33;1.20;;;;;;;17.05;65.58;101153.81;2080838;28;20524;-69
2022/06/30 03:41:26;;;;;;;2.65;1.00;;;;;;;17.05;65.08;101151.13;2079286;28;30824;-69
2022/06/30 03:42:30;;;;;;;2.58;1.13;;;;;;;17.07;64.77;101151.91;2079509;28;20147;-69
2022/06/30 03:43:32;;;;;;;4.25;1.30;;;;;;;17.08;64.57;101147.38;2079893;28;21589;-69
2022/06/30 03:44:34;;;;;;;3.10;1.10;;;;;;;17.06;65.28;101150.16;2079714;28;23086;-69
2022/06/30 03:45:36;;;;;;;1.98;1.10;;;;;;;17.07;65.11;101141.09;2079264;28;21507;-69
2022/06/30 03:46:38;;;;;;;1.80;1.15;;;;;;;17.08;64.98;101139.25;2087239;28;25307;-69
2022/06/30 03:47:39;;;;;;;2.42;1.20;;;;;;;17.08;64.79;101141.97;2087463;28;20049;-69
2022/06/30 03:48:41;;;;;;;3.25;1.10;;;;;;;17.09;65.34;101147.31;2079917;28;23781;-68
2022/06/30 03:49:45;;;;;;;4.18;1.27;;;;;;;17.10;64.41;101140.97;2079437;28;20046;-69
2022/06/30 03:50:47;;;;;;;4.28;1.13;;;;;;;17.11;64.97;101141.84;2079825;28;20035;-68
2022/06/30 03:51:54;;;;;;;3.97;1.10;;;;;;;17.12;64.97;101141.75;2079730;28;20038;-68
2022/06/30 03:52:58;;;;;;;1.88;0.70;;;;;;;17.14;64.92;101147.09;2079372;28;22236;-69
2022/06/30 03:53:59;;;;;;;4.93;1.35;;;;;;;17.15;64.83;101144.31;2078998;28;31340;-69
2022/06/30 03:55:01;;;;;;;2.63;0.88;;;;;;;17.20;64.79;101144.09;2080008;28;21670;-69
2022/06/30 03:56:04;;;;;;;2.95;1.30;;;;;;;17.23;64.28;101143.06;2086503;28;38826;-68
2022/06/30 03:57:08;;;;;;;1.75;0.95;;;;;;;17.26;64.24;101140.22;2086706;28;30099;-68
2022/06/30 03:58:10;;;;;;;3.58;1.23;;;;;;;17.27;64.26;101142.00;2086377;28;26573;-68
2022/06/30 03:59:15;;;;;;;3.10;1.08;;;;;;;17.30;64.41;101140.00;2079304;28;20867;-69
2022/06/30 04:00:17;;;;;;;6.40;1.20;;;;;;;17.39;63.91;101140.50;2079390;28;25281;-68
2022/06/30 04:01:19;;;;;;;2.97;0.93;;;;;;;17.43;63.55;101143.00;2079805;28;20960;-68
2022/06/30 04:02:20;;;;;;;3.45;1.08;;;;;;;17.50;63.32;101141.75;2079023;28;23793;-68
2022/06/30 04:03:22;;;;;;;3.45;1.13;;;;;;;17.56;63.44;101138.72;2078894;28;32126;-67
2022/06/30 04:04:24;;;;;;;4.47;1.10;;;;;;;17.68;62.79;101136.41;2079810;28;20054;-68
2022/06/30 04:05:26;;;;;;;1.92;0.85;;;;;;;17.89;62.37;101137.16;2079655;28;26836;-68
2022/06/30 04:06:28;;;;;;;5.15;1.15;;;;;;;18.10;61.70;101140.63;2079610;28;23451;-69
2022/06/30 04:07:30;;;;;;;1.85;0.90;;;;;;;18.31;61.32;101138.63;2079711;28;21043;-68
2022/06/30 04:08:32;;;;;;;5.03;1.05;;;;;;;18.53;60.25;101132.97;2079768;28;23578;-69
2022/06/30 04:09:34;;;;;;;3.67;1.00;;;;;;;18.81;59.39;101137.81;2087770;28;20101;-69
2022/06/30 04:10:36;;;;;;;3.80;1.02;;;;;;;19.04;58.65;101131.13;2089661;28;33325;-68
2022/06/30 04:11:38;;;;;;;2.20;1.10;;;;;;;19.39;57.52;101136.41;2079154;28;40993;-69
2022/06/30 04:12:41;;;;;;;5.10;1.13;;;;;;;19.77;56.21;101130.63;2079771;28;20173;-68
2022/06/30 04:13:45;;;;;;;1.08;0.65;;;;;;;20.12;55.49;101135.84;2079918;28;27593;-68
2022/06/30 04:14:47;;;;;;;2.65;1.10;;;;;;;20.36;53.80;101132.59;2080218;28;20800;-68
2022/06/30 04:15:49;;;;;;;2.22;0.93;;;;;;;20.61;53.20;101126.56;2079379;28;33279;-69
2022/06/30 04:16:51;;;;;;;1.90;0.90;;;;;;;20.88;52.99;101128.50;2079922;28;23135;-69
2022/06/30 04:17:53;;;;;;;2.35;0.80;;;;;;;21.25;52.54;101135.19;2078755;28;27851;-69
2022/06/30 04:18:54;;;;;;;2.40;0.90;;;;;;;21.62;51.06;101134.66;2079810;28;28194;-68
2022/06/30 04:19:56;;;;;;;4.22;1.15;;;;;;;21.66;49.94;101137.09;2089295;28;20926;-68
2022/06/30 04:20:58;;;;;;;4.07;1.27;;;;;;;22.06;49.37;101128.06;2088590;28;20734;-68
2022/06/30 04:22:00;;;;;;;1.58;0.93;;;;;;;22.58;48.15;101129.94;2080985;28;28203;-69
2022/06/30 04:23:05;;;;;;;1.40;1.00;;;;;;;22.57;48.05;101138.22;2080661;28;34625;-68
2022/06/30 04:24:08;;;;;;;4.40;1.05;;;;;;;22.76;47.30;101138.69;2081446;28;21462;-68
2022/06/30 04:25:10;;;;;;;1.30;0.80;;;;;;;23.19;46.39;101137.47;2088393;28;22027;-65
2022/06/30 04:26:13;;;;;;;3.80;0.88;;;;;;;23.14;46.41;101137.81;2088621;28;20073;-69
2022/06/30 04:27:17;;;;;;;4.32;0.93;;;;;;;22.79;46.63;101135.75;2081005;28;24691;-67
2022/06/30 04:28:19;;;;;;;3.30;0.90;;;;;;;22.82;47.63;101132.78;2080891;28;24036;-67
2022/06/30 04:29:21;;;;;;;2.40;0.90;;;;;;;23.16;46.95;101132.22;2080595;28;37491;-68
2022/06/30 04:33:04;;;;;;;1.75;0.98;;;;;;;23.73;45.28;101122.56;2080697;28;25222;-68
2022/06/30 04:34:06;;;;;;;6.30;0.88;;;;;;;24.22;43.80;101124.28;2081369;28;25695;-68
2022/06/30 04:35:12;;;;;;;1.38;0.80;;;;;;;23.91;43.97;101123.06;2081030;28;20046;-69
2022/06/30 04:36:15;;;;;;;3.47;1.00;;;;;;;23.95;43.85;101122.69;2081248;28;23423;-68
2022/06/30 04:37:17;;;;;;;2.17;1.10;;;;;;;23.94;44.40;101115.50;2081245;28;20065;-68
2022/06/30 04:38:18;;;;;;;1.38;0.90;;;;;;;23.35;45.00;101124.44;2080866;28;39119;-68
2022/06/30 04:39:21;;;;;;;4.20;1.10;;;;;;;23.88;44.36;101120.53;2108321;22;28499;-69
2022/06/30 04:41:44;;;;;;;2.90;1.08;;;;;;;24.67;43.10;101110.72;2099504;28;28277;-71
2022/06/30 04:42:46;;;;;;;3.45;0.90;;;;;;;24.12;43.86;101112.31;2097419;28;36920;-71
2022/06/30 04:43:55;;;;;;;3.50;1.30;;;;;;;24.26;43.00;101103.88;2096743;28;24105;-71
2022/06/30 04:44:57;;;;;;;2.53;0.90;;;;;;;24.43;43.08;101109.94;2097503;28;20041;-71
2022/06/30 04:45:59;;;;;;;2.80;1.00;;;;;;;24.89;41.42;101111.75;2097480;28;20869;-71
2022/06/30 04:47:03;;;;;;;2.13;1.05;;;;;;;25.42;41.12;101109.25;2097742;28;27844;-71
2022/06/30 04:48:05;;;;;;;1.63;0.75;;;;;;;25.39;41.18;101103.16;2096875;28;26975;-71
2022/06/30 04:49:07;;;;;;;3.10;1.05;;;;;;;25.13;40.60;101114.38;2097562;28;23868;-71
2022/06/30 04:50:10;;;;;;;3.22;0.98;;;;;;;25.18;41.02;101116.72;2097975;28;20134;-71
2022/06/30 04:51:12;;;;;;;2.17;1.00;;;;;;;25.60;40.26;101119.69;2097231;28;31951;-70
2022/06/30 04:52:13;;;;;;;2.60;1.10;;;;;;;24.86;42.45;101117.50;2097369;28;28226;-71
2022/06/30 04:53:15;;;;;;;1.55;0.90;;;;;;;24.92;41.23;101122.47;2097601;28;20846;-71
2022/06/30 04:54:21;;;;;;;3.83;1.08;;;;;;;25.65;40.20;101115.56;2097497;28;20913;-71
2022/06/30 04:55:25;;;;;;;3.47;0.90;;;;;;;25.94;40.16;101116.88;2097389;28;20208;-70
2022/06/30 04:56:27;;;;;;;4.45;1.38;;;;;;;25.33;40.41;101120.97;2096865;28;24148;-71
2022/06/30 04:57:29;;;;;;;3.63;0.98;;;;;;;25.89;40.16;101123.56;2089208;28;26262;-70
2022/06/30 04:58:30;;;;;;;2.25;1.05;;;;;;;26.55;38.45;101114.28;2097171;28;25039;-71
2022/06/30 04:59:32;;;;;;;1.65;0.90;;;;;;;26.80;37.74;101112.16;2097709;28;20033;-71
2022/06/30 05:00:34;;;;;;;3.15;0.95;;;;;;;27.19;37.51;101107.72;2097812;28;20840;-71
2022/06/30 05:01:36;;;;;;;2.45;1.02;;;;;;;25.66;39.22;101105.44;2097545;28;27541;-70
2022/06/30 05:02:38;;;;;;;3.72;1.13;;;;;;;25.93;38.94;101107.75;2097147;28;32562;-71
2022/06/30 05:03:40;;;;;;;3.17;1.05;;;;;;;26.04;39.13;101106.84;2097264;28;26212;-70